Time;durP1;ratioP1;P1;durP2;ratioP2;P2;SDS_P1;SDS_P2;PMS_P1;PMS_P2;Temp;Humidity;BMP_temperature;BMP_pressure;BME280_temperature;BME280_humidity;BME280_pressure;Samples;Min_cycle;Max_cycle;Signal;HPM_P1;HPM_P2
2022/04/27 00:01:00;;;;;;;42.38;24.05;;;;;;;7.57;82.15;99397.66;1756029;82;21131;-35
2022/04/27 00:03:25;;;;;;;37.42;21.85;;;;;;;7.55;82.32;99400.80;1756097;82;20984;-41
2022/04/27 00:05:52;;;;;;;37.67;20.72;;;;;;;7.53;82.58;99402.62;1756097;82;20975;-37
2022/04/27 00:08:17;;;;;;;36.93;21.40;;;;;;;7.49;81.81;99405.83;1756160;82;21485;-36
2022/04/27 00:10:43;;;;;;;40.80;23.07;;;;;;;7.45;82.01;99403.38;1756028;82;21007;-36
2022/04/27 00:13:16;;;;;;;36.20;21.02;;;;;;;7.44;82.36;99402.97;1756027;82;21406;-36
2022/04/27 00:15:42;;;;;;;40.70;23.38;;;;;;;7.43;82.73;99409.14;1756003;82;20987;-37
2022/04/27 00:18:08;;;;;;;42.67;23.05;;;;;;;7.42;82.41;99407.42;1753729;82;21054;-37
2022/04/27 00:20:33;;;;;;;42.70;22.02;;;;;;;7.40;82.44;99407.95;1747873;82;21015;-36
2022/04/27 00:22:59;;;;;;;40.33;21.52;;;;;;;7.35;82.59;99408.58;1748069;82;21457;-36
2022/04/27 00:25:25;;;;;;;38.75;22.95;;;;;;;7.32;82.80;99405.64;1748063;82;20952;-36
2022/04/27 00:27:51;;;;;;;50.28;24.47;;;;;;;7.30;82.83;99410.09;1747974;82;21018;-36
2022/04/27 00:30:17;;;;;;;51.77;24.18;;;;;;;7.27;82.82;99407.13;1748046;82;21063;-35
2022/04/27 00:32:42;;;;;;;50.98;24.07;;;;;;;7.26;82.95;99408.05;1748132;82;21003;-37
2022/04/27 00:35:08;;;;;;;46.55;23.77;;;;;;;7.25;82.88;99410.72;1748066;82;21472;-36
2022/04/27 00:37:34;;;;;;;44.95;22.35;;;;;;;7.24;83.25;99411.63;1748046;82;21007;-36
2022/04/27 00:40:01;;;;;;;37.73;21.75;;;;;;;7.22;83.01;99418.25;1748061;82;21478;-36
2022/04/27 00:42:26;;;;;;;41.00;22.35;;;;;;;7.20;82.97;99413.51;1748026;82;21019;-37
2022/04/27 00:44:52;;;;;;;43.45;21.70;;;;;;;7.15;83.07;99407.63;1748021;82;20987;-36
2022/04/27 00:47:19;;;;;;;44.35;22.05;;;;;;;7.13;82.75;99416.00;1748017;82;21023;-36
2022/04/27 00:49:54;;;;;;;41.20;22.45;;;;;;;7.10;83.00;99410.88;1748002;82;21011;-36
2022/04/27 00:52:20;;;;;;;47.15;23.62;;;;;;;7.09;83.10;99410.03;1748016;82;21454;-36
2022/04/27 00:54:49;;;;;;;42.00;22.93;;;;;;;7.08;83.32;99415.32;1748047;82;20961;-37
2022/04/27 00:57:15;;;;;;;38.33;21.82;;;;;;;7.06;83.60;99417.15;1726975;82;21039;-36
2022/04/27 00:59:41;;;;;;;46.88;24.70;;;;;;;7.05;83.22;99416.73;1748006;82;20984;-36
2022/04/27 01:02:07;;;;;;;45.10;22.90;;;;;;;7.02;83.43;99414.23;1748032;82;21431;-36
2022/04/27 01:04:34;;;;;;;47.90;23.05;;;;;;;7.01;83.44;99413.86;1748045;82;21465;-36
2022/04/27 01:07:01;;;;;;;37.42;21.50;;;;;;;7.00;83.62;99414.75;1748136;82;20979;-36
2022/04/27 01:09:28;;;;;;;45.78;23.02;;;;;;;7.00;83.24;99414.75;1748011;82;20976;-36
2022/04/27 01:11:56;;;;;;;37.90;23.05;;;;;;;6.97;83.65;99414.86;1748124;82;20964;-36
2022/04/27 01:14:22;;;;;;;44.35;22.95;;;;;;;6.96;83.47;99415.32;1748015;82;20987;-36
2022/04/27 01:16:56;;;;;;;45.55;24.60;;;;;;;6.95;83.30;99415.38;1747981;82;20987;-36
2022/04/27 01:19:24;;;;;;;47.33;23.55;;;;;;;6.95;83.52;99420.17;1747927;82;21071;-35
2022/04/27 01:21:50;;;;;;;;;;;;;;;6.92;84.06;99414.59;1750704;82;21330;-38
2022/04/27 01:24:24;;;;;;;45.70;22.93;;;;;;;6.89;84.33;99419.08;1748168;82;20123;-35
2022/04/27 01:26:52;;;;;;;42.35;22.67;;;;;;;6.89;83.65;99419.95;1748031;82;20987;-36
2022/04/27 01:29:22;;;;;;;43.73;23.62;;;;;;;6.84;83.67;99417.97;1748006;82;21476;-36
2022/04/27 01:31:48;;;;;;;40.75;21.95;;;;;;;6.82;83.83;99420.22;1747909;82;21113;-35
2022/04/27 01:34:14;;;;;;;40.35;23.10;;;;;;;6.80;83.96;99421.58;1747996;82;20964;-36
2022/04/27 01:36:40;;;;;;;44.38;23.50;;;;;;;6.80;84.09;99419.44;1747654;82;21049;-35
2022/04/27 01:39:06;;;;;;;43.23;23.30;;;;;;;6.79;84.16;99419.90;1748029;82;21034;-35
2022/04/27 01:41:34;;;;;;;44.87;23.63;;;;;;;6.77;84.13;99430.87;1748198;82;20964;-35
2022/04/27 01:44:00;;;;;;;41.75;23.20;;;;;;;6.77;84.39;99437.41;1748002;82;21081;-36
2022/04/27 01:46:27;;;;;;;47.80;24.20;;;;;;;6.74;84.48;99437.51;1747970;82;21026;-36
2022/04/27 01:48:54;;;;;;;45.43;22.43;;;;;;;6.72;84.26;99440.64;1748229;82;20982;-36
2022/04/27 01:54:14;;;;;;;48.47;25.53;;;;;;;6.70;84.08;99446.38;1748299;82;21236;-35
2022/04/27 01:56:31;;;;;;;39.67;22.45;;;;;;;6.67;84.27;99446.48;1747927;82;20964;-36
2022/04/27 01:58:57;;;;;;;39.18;22.27;;;;;;;6.70;83.78;99451.61;1747969;82;21042;-35
2022/04/27 02:01:25;;;;;;;44.65;22.93;;;;;;;6.69;83.92;99451.20;1747954;82;21030;-36
2022/04/27 02:03:51;;;;;;;37.65;22.35;;;;;;;6.67;83.95;99449.09;1748050;82;20980;-36
2022/04/27 02:06:19;;;;;;;37.47;22.03;;;;;;;6.62;84.51;99444.48;1748488;82;20999;-36
2022/04/27 02:08:45;;;;;;;;;;;;;;;6.62;84.64;99444.48;1750580;82;20956;-37
2022/04/27 02:11:11;;;;;;;38.15;21.62;;;;;;;6.57;84.51;99443.80;1748084;82;20138;-36
2022/04/27 02:13:37;;;;;;;44.13;24.55;;;;;;;6.57;84.72;99444.67;1747993;82;21484;-36
2022/04/27 02:16:04;;;;;;;40.78;21.87;;;;;;;6.55;84.90;99437.34;1747977;82;20995;-36
2022/04/27 02:18:29;;;;;;;38.95;21.50;;;;;;;6.54;84.97;99439.08;1749653;82;21910;-36
2022/04/27 02:20:58;;;;;;;39.70;23.40;;;;;;;6.53;84.67;99439.14;1755933;82;21011;-36
2022/04/27 02:23:24;;;;;;;38.92;21.48;;;;;;;6.48;84.61;99440.62;1755933;82;20980;-35
2022/04/27 02:25:51;;;;;;;48.75;24.30;;;;;;;6.48;84.88;99442.39;1756056;82;21465;-36
2022/04/27 02:28:17;;;;;;;47.30;25.75;;;;;;;6.46;85.37;99441.14;1756084;82;21465;-36
2022/04/27 02:30:43;;;;;;;53.87;25.00;;;;;;;6.48;85.74;99447.16;1755926;82;21030;-36
2022/04/27 02:33:09;;;;;;;47.43;24.67;;;;;;;6.51;85.58;99443.14;1755995;82;21531;-36
2022/04/27 02:35:34;;;;;;;51.02;25.10;;;;;;;6.50;85.21;99440.11;1755981;82;20951;-36
2022/04/27 02:38:00;;;;;;;49.85;25.85;;;;;;;6.49;84.84;99442.34;1756089;82;20991;-36
2022/04/27 02:43:31;;;;;;;57.58;26.62;;;;;;;6.49;85.45;99441.47;1800215;79;23112;-41
2022/04/27 02:45:58;;;;;;;50.90;27.05;;;;;;;6.44;85.59;99439.47;1761478;81;21032;-36
2022/04/27 02:48:24;;;;;;;42.90;25.32;;;;;;;6.45;86.04;99444.64;1761883;81;21468;-34
2022/04/27 02:53:36;;;;;;;56.08;28.27;;;;;;;6.43;85.44;99443.85;1761719;81;20975;-37
2022/04/27 02:56:03;;;;;;;51.13;26.82;;;;;;;6.42;85.70;99446.08;1761722;81;21525;-37
2022/04/27 02:58:29;;;;;;;56.23;28.80;;;;;;;6.43;85.83;99450.38;1761879;80;21030;-35
2022/04/27 03:00:55;;;;;;;55.88;28.65;;;;;;;6.39;85.52;99447.48;1761716;80;20980;-34
2022/04/27 03:03:20;;;;;;;59.08;29.07;;;;;;;6.39;86.01;99444.87;1761731;81;21021;-34
2022/04/27 03:05:46;;;;;;;53.28;27.40;;;;;;;6.39;85.90;99453.17;1761746;81;21480;-35
2022/04/27 03:08:14;;;;;;;57.05;28.30;;;;;;;6.36;85.27;99458.03;1761823;80;21151;-35
2022/04/27 03:10:39;;;;;;;51.75;29.20;;;;;;;6.33;85.35;99459.44;1761948;81;20983;-35
2022/04/27 03:13:05;;;;;;;52.27;28.60;;;;;;;6.30;85.64;99457.80;1761641;80;20995;-36
2022/04/27 03:15:33;;;;;;;58.00;29.07;;;;;;;6.30;85.94;99456.50;1761718;80;21019;-36
2022/04/27 03:18:17;;;;;;;66.87;30.55;;;;;;;6.32;86.26;99469.05;1761877;80;21464;-35
2022/04/27 03:20:43;;;;;;;57.05;29.67;;;;;;;6.29;86.30;99457.42;1761720;81;21598;-36
2022/04/27 03:23:08;;;;;;;61.65;30.57;;;;;;;6.30;86.51;99471.33;1761635;81;21025;-35
2022/04/27 03:25:34;;;;;;;58.15;29.63;;;;;;;6.33;86.38;99465.97;1761631;81;21051;-36
2022/04/27 03:28:00;;;;;;;63.55;29.37;;;;;;;6.33;85.95;99479.03;1761731;81;20975;-35
2022/04/27 03:30:26;;;;;;;59.13;30.32;;;;;;;6.30;85.50;99476.55;1761893;81;20968;-35
2022/04/27 03:32:54;;;;;;;54.77;29.18;;;;;;;6.30;86.18;99479.16;1761683;80;21007;-36
2022/04/27 03:35:19;;;;;;;;;;;;;;;6.30;86.39;99480.00;1764327;81;21469;-36
2022/04/27 03:37:45;;;;;;;67.25;32.48;;;;;;;6.31;86.92;99480.84;1761678;81;20109;-35
2022/04/27 03:40:12;;;;;;;60.85;31.50;;;;;;;6.36;86.68;99486.77;1761634;81;20987;-36
2022/04/27 03:42:37;;;;;;;60.43;31.25;;;;;;;6.39;86.96;99487.13;1754499;81;20996;-35
2022/04/27 03:45:04;;;;;;;62.03;30.72;;;;;;;6.43;86.81;99490.03;1748570;82;21039;-35
2022/04/27 03:47:30;;;;;;;61.00;29.87;;;;;;;6.42;85.93;99493.53;1749076;82;21027;-35
2022/04/27 03:49:59;;;;;;;55.25;30.72;;;;;;;6.39;86.01;99491.89;1748599;81;20996;-35
2022/04/27 03:52:25;;;;;;;;;;;;;;;6.41;86.34;99492.69;1750971;81;20976;-41
2022/04/27 03:54:50;;;;;;;62.62;30.17;;;;;;;6.40;86.68;99495.35;1748160;81;20408;-35
2022/04/27 03:57:16;;;;;;;64.50;30.82;;;;;;;6.44;86.69;99501.73;1748181;81;21346;-36
2022/04/27 03:59:42;;;;;;;59.63;31.00;;;;;;;6.46;86.78;99501.23;1748121;81;20983;-35
2022/04/27 04:02:08;;;;;;;63.15;31.27;;;;;;;6.49;86.62;99506.35;1748061;81;21426;-35
2022/04/27 04:04:33;;;;;;;57.35;29.85;;;;;;;6.53;86.49;99502.72;1748076;81;20988;-36
2022/04/27 04:06:59;;;;;;;55.67;29.50;;;;;;;6.54;86.49;99507.02;1748074;81;21402;-35
2022/04/27 04:09:25;;;;;;;56.10;29.50;;;;;;;6.58;86.49;99506.92;1748011;81;21008;-35
2022/04/27 04:11:51;;;;;;;52.67;29.20;;;;;;;6.61;86.58;99514.66;1748035;82;20987;-35
2022/04/27 04:14:16;;;;;;;66.00;32.30;;;;;;;6.62;86.54;99513.73;1748089;81;21567;-36
2022/04/27 04:16:42;;;;;;;59.45;29.40;;;;;;;6.65;86.87;99513.63;1748082;81;21003;-36
2022/04/27 04:19:10;;;;;;;58.38;31.85;;;;;;;6.72;86.81;99521.66;1748046;81;21031;-38
2022/04/27 04:21:35;;;;;;;;;;;;;;;6.78;87.47;99522.73;1750562;81;21469;-37
2022/04/27 04:24:01;;;;;;;67.70;31.82;;;;;;;6.87;87.65;99526.31;1748054;81;20101;-36
2022/04/27 04:29:11;;;;;;;58.52;32.08;;;;;;;7.02;86.90;99527.97;1748044;82;21433;-36
2022/04/27 04:31:36;;;;;;;56.60;31.60;;;;;;;7.07;86.94;99531.28;1748026;81;20991;-37
2022/04/27 04:34:04;;;;;;;56.95;31.50;;;;;;;7.13;87.16;99534.99;1748041;81;21063;-39
2022/04/27 04:36:29;;;;;;;70.90;31.62;;;;;;;7.21;87.32;99536.00;1748248;81;20984;-36
2022/04/27 04:38:55;;;;;;;67.55;31.02;;;;;;;7.28;86.63;99535.70;1748026;81;20964;-37
2022/04/27 04:41:21;;;;;;;60.73;30.10;;;;;;;7.39;85.87;99534.45;1747995;81;21066;-38
2022/04/27 04:43:47;;;;;;;73.55;32.10;;;;;;;7.45;85.77;99537.67;1760129;81;21019;-37
2022/04/27 04:46:12;;;;;;;63.30;30.12;;;;;;;7.52;85.50;99538.77;1761417;80;20955;-40
2022/04/27 04:48:38;;;;;;;72.70;31.70;;;;;;;7.60;85.68;99541.92;1761365;81;21472;-36
2022/04/27 04:51:04;;;;;;;59.48;30.65;;;;;;;7.67;85.46;99548.16;1761445;81;21661;-36
2022/04/27 04:53:30;;;;;;;65.10;31.05;;;;;;;7.73;85.72;99540.98;1761618;80;20991;-35
2022/04/27 04:55:56;;;;;;;67.90;32.08;;;;;;;7.82;85.13;99545.84;1761367;81;21476;-36
2022/04/27 04:58:22;;;;;;;64.67;32.53;;;;;;;7.90;84.76;99553.42;1761407;81;20995;-36
2022/04/27 05:00:48;;;;;;;65.75;34.18;;;;;;;7.93;84.33;99547.60;1761371;81;20987;-36
2022/04/27 05:03:14;;;;;;;64.30;32.67;;;;;;;7.94;83.93;99550.59;1761279;80;21003;-36
2022/04/27 05:05:41;;;;;;;69.35;32.70;;;;;;;7.95;83.81;99551.00;1761344;81;21027;-36
2022/04/27 05:08:08;;;;;;;61.25;31.48;;;;;;;7.99;83.70;99555.20;1761686;81;21022;-36
2022/04/27 05:10:34;;;;;;;;;;;;;;;8.02;84.01;99561.63;1764011;81;21030;-36
2022/04/27 05:13:00;;;;;;;58.23;30.92;;;;;;;8.02;83.98;99562.94;1761532;81;20116;-37
2022/04/27 05:15:26;;;;;;;63.38;32.35;;;;;;;8.11;83.68;99565.62;1761331;81;20994;-35
2022/04/27 05:17:52;;;;;;;57.55;30.62;;;;;;;8.18;83.61;99563.61;1761310;80;20991;-37
2022/04/27 05:20:18;;;;;;;65.50;31.75;;;;;;;8.23;83.46;99565.59;1761338;80;20999;-37
2022/04/27 05:22:44;;;;;;;59.67;31.68;;;;;;;8.31;83.38;99570.04;1761302;81;21112;-36
2022/04/27 05:25:11;;;;;;;53.98;28.23;;;;;;;8.37;83.32;99569.80;1761310;81;20991;-36
2022/04/27 05:27:38;;;;;;;58.58;29.12;;;;;;;8.45;83.41;99575.59;1761450;81;21006;-36
2022/04/27 05:32:52;;;;;;;52.55;29.52;;;;;;;8.55;82.88;99589.18;1761331;81;20964;-36
2022/04/27 05:35:18;;;;;;;60.58;31.90;;;;;;;8.58;82.80;99593.43;1761612;81;21492;-37
2022/04/27 05:37:44;;;;;;;64.70;31.12;;;;;;;8.61;82.49;99590.22;1761350;81;20995;-36
2022/04/27 05:40:11;;;;;;;57.90;30.10;;;;;;;8.66;82.27;99599.22;1761347;81;21467;-36
2022/04/27 05:42:37;;;;;;;;;;;;;;;8.72;82.10;99598.09;1759655;81;20985;-39
2022/04/27 05:45:05;;;;;;;60.30;33.25;;;;;;;8.76;82.16;99603.13;1748197;81;20105;-38
2022/04/27 05:47:32;;;;;;;114.92;57.13;;;;;;;8.86;82.03;99605.35;1747985;81;21482;-42
2022/04/27 05:49:58;;;;;;;69.00;34.03;;;;;;;8.90;82.13;99605.17;1748104;81;21018;-36
2022/04/27 05:52:23;;;;;;;72.53;33.48;;;;;;;8.98;81.89;99608.30;1747970;81;20968;-38
2022/04/27 05:54:49;;;;;;;84.00;36.25;;;;;;;9.02;81.48;99610.32;1747963;82;21023;-36
2022/04/27 05:57:15;;;;;;;67.05;32.88;;;;;;;9.10;81.41;99608.70;1747999;81;21500;-37
2022/04/27 05:59:43;;;;;;;116.65;65.32;;;;;;;9.08;81.13;99608.77;1748024;81;21445;-37
2022/04/27 06:02:09;;;;;;;;;;;;;;;9.12;80.70;99614.25;1750595;82;21085;-37
2022/04/27 06:04:35;;;;;;;81.05;44.33;;;;;;;9.11;80.43;99611.70;1747984;81;20157;-36
2022/04/27 06:07:01;;;;;;;63.48;34.05;;;;;;;9.20;80.60;99613.91;1747912;81;20999;-37
2022/04/27 06:09:27;;;;;;;64.47;32.45;;;;;;;9.33;80.84;99626.02;1747943;81;20957;-37
2022/04/27 06:11:53;;;;;;;57.55;30.20;;;;;;;9.43;80.21;99623.86;1747896;82;20999;-36
2022/04/27 06:14:20;;;;;;;60.95;29.45;;;;;;;9.50;79.78;99628.75;1747873;81;20995;-36
2022/04/27 06:16:45;;;;;;;59.77;30.12;;;;;;;9.51;78.66;99632.22;1748068;81;20992;-35
2022/04/27 06:19:12;;;;;;;83.20;30.92;;;;;;;9.60;79.05;99634.42;1748006;82;21035;-37
2022/04/27 06:21:37;;;;;;;79.62;31.55;;;;;;;9.71;78.55;99630.83;1747906;81;21501;-36
2022/04/27 06:24:05;;;;;;;63.52;30.72;;;;;;;9.84;78.43;99639.03;1748039;82;20987;-37
2022/04/27 06:26:33;;;;;;;;;;;;;;;9.95;77.73;99643.31;1750571;81;21387;-37
2022/04/27 06:29:01;;;;;;;63.98;29.55;;;;;;;10.03;77.25;99643.41;1747804;81;20097;-37
2022/04/27 06:31:27;;;;;;;59.23;28.75;;;;;;;10.14;76.90;99644.59;1747965;81;21570;-38
2022/04/27 06:33:53;;;;;;;66.67;29.48;;;;;;;10.24;76.32;99651.59;1748049;81;21000;-37
2022/04/27 06:36:18;;;;;;;51.65;28.12;;;;;;;10.33;76.20;99643.72;1747938;82;20968;-37
2022/04/27 06:38:44;;;;;;;58.92;29.12;;;;;;;10.41;75.48;99644.22;1747984;81;20968;-35
2022/04/27 06:41:10;;;;;;;55.17;27.50;;;;;;;10.49;74.80;99649.09;1747906;81;21496;-39
2022/04/27 06:43:36;;;;;;;63.68;28.77;;;;;;;10.59;74.84;99652.11;1747877;81;21497;-36
2022/04/27 06:46:02;;;;;;;62.62;27.93;;;;;;;10.64;73.93;99650.11;1748041;81;21488;-38
2022/04/27 06:48:28;;;;;;;57.73;27.42;;;;;;;10.75;73.62;99654.36;1748011;81;21560;-37
2022/04/27 06:50:54;;;;;;;58.17;26.17;;;;;;;10.86;72.78;99659.95;1748235;81;20995;-38
2022/04/27 06:53:20;;;;;;;59.15;27.25;;;;;;;10.99;73.22;99664.57;1747915;81;21031;-36
2022/04/27 06:55:47;;;;;;;59.58;27.60;;;;;;;11.06;73.02;99668.15;1747889;81;20987;-37
2022/04/27 06:58:13;;;;;;;53.73;29.55;;;;;;;11.12;71.94;99674.41;1748115;81;20995;-36
2022/04/27 07:00:38;;;;;;;52.13;27.80;;;;;;;11.15;71.72;99673.38;1748032;81;21529;-37
2022/04/27 07:03:05;;;;;;;56.85;27.45;;;;;;;11.24;71.74;99682.59;1748036;81;21489;-36
2022/04/27 07:05:31;;;;;;;46.65;25.20;;;;;;;11.32;70.70;99676.48;1748053;81;20976;-35
2022/04/27 07:07:59;;;;;;;49.45;24.72;;;;;;;11.40;70.71;99675.59;1747935;81;21020;-36
2022/04/27 07:10:25;;;;;;;;;;;;;;;11.50;69.99;99675.50;1750517;81;21540;-36
2022/04/27 07:12:51;;;;;;;39.23;22.15;;;;;;;11.57;68.38;99679.12;1748043;81;20105;-39
2022/04/27 07:15:17;;;;;;;36.40;21.50;;;;;;;11.64;69.05;99675.23;1748249;81;21022;-36
2022/04/27 07:17:43;;;;;;;45.03;23.45;;;;;;;11.72;68.93;99679.63;1747906;81;21025;-36
2022/04/27 07:20:10;;;;;;;45.40;23.50;;;;;;;11.75;68.51;99679.48;1747961;81;20995;-35
2022/04/27 07:22:37;;;;;;;40.45;21.73;;;;;;;11.83;67.37;99685.64;1748034;81;21031;-39
2022/04/27 07:25:04;;;;;;;55.55;23.10;;;;;;;11.94;67.78;99689.05;1747858;81;21026;-42
2022/04/27 07:27:31;;;;;;;42.93;21.70;;;;;;;11.99;66.61;99690.94;1748032;81;21000;-40
2022/04/27 07:29:57;;;;;;;;;;;;;;;12.13;67.30;99693.67;1750713;81;21023;-36
2022/04/27 07:32:23;;;;;;;36.35;18.37;;;;;;;12.13;64.30;99696.30;1748089;81;20136;-37
2022/04/27 07:34:51;;;;;;;29.60;15.45;;;;;;;12.24;65.89;99693.95;1748075;81;20968;-38
2022/04/27 07:37:16;;;;;;;21.20;13.58;;;;;;;12.35;66.58;99701.70;1747969;81;20988;-37
2022/04/27 07:39:42;;;;;;;22.80;14.75;;;;;;;12.38;63.94;99703.70;1748137;81;21461;-36
2022/04/27 07:42:07;;;;;;;31.73;14.87;;;;;;;12.57;65.12;99692.98;1748108;81;21469;-37
2022/04/27 07:44:33;;;;;;;17.90;12.68;;;;;;;12.71;63.72;99695.28;1748001;81;21513;-37
2022/04/27 07:46:59;;;;;;;18.37;10.45;;;;;;;12.75;62.02;99700.76;1748097;81;21457;-37
2022/04/27 07:49:25;;;;;;;19.80;14.25;;;;;;;12.72;60.56;99697.00;1748152;81;21497;-37
2022/04/27 07:51:51;;;;;;;20.70;13.00;;;;;;;12.75;61.29;99702.95;1748160;81;21023;-36
2022/04/27 07:54:17;;;;;;;19.92;14.05;;;;;;;12.75;60.99;99704.72;1748096;81;20991;-37
2022/04/27 07:56:43;;;;;;;29.15;14.70;;;;;;;12.83;61.66;99704.66;1748043;82;21116;-38
2022/04/27 07:59:08;;;;;;;25.60;15.43;;;;;;;12.85;60.98;99705.89;1737568;82;21492;-37
2022/04/27 08:01:34;;;;;;;31.70;15.72;;;;;;;12.88;61.30;99701.77;1748066;81;20976;-37
2022/04/27 08:04:00;;;;;;;22.10;14.95;;;;;;;12.83;60.95;99702.02;1748003;82;20984;-37
2022/04/27 08:06:26;;;;;;;29.80;15.58;;;;;;;12.84;60.69;99702.86;1747939;81;21024;-37
2022/04/27 08:08:52;;;;;;;24.40;14.90;;;;;;;12.85;60.41;99700.14;1746553;81;21003;-36
2022/04/27 08:11:18;;;;;;;26.60;16.23;;;;;;;12.91;59.52;99707.33;1746332;82;20996;-37
2022/04/27 08:13:44;;;;;;;22.93;15.70;;;;;;;12.95;59.84;99705.75;1746387;82;21112;-40
2022/04/27 08:16:11;;;;;;;22.10;15.63;;;;;;;12.96;59.35;99706.59;1746405;82;21005;-36
2022/04/27 08:18:38;;;;;;;28.77;15.20;;;;;;;13.02;59.30;99711.50;1746676;82;21019;-37
2022/04/27 08:21:14;;;;;;;20.57;15.58;;;;;;;13.07;59.54;99709.45;1746673;82;21469;-37
2022/04/27 08:23:43;;;;;;;18.65;14.83;;;;;;;13.13;59.36;99709.07;1746444;82;21449;-37
2022/04/27 08:26:10;;;;;;;17.80;13.65;;;;;;;13.19;58.82;99706.56;1744341;82;21023;-38
2022/04/27 08:28:37;;;;;;;18.82;13.78;;;;;;;13.21;58.91;99711.28;1746092;82;20988;-38
2022/04/27 08:31:04;;;;;;;21.02;14.15;;;;;;;13.18;57.29;99711.45;1746300;82;20996;-37
2022/04/27 08:33:30;;;;;;;19.80;14.37;;;;;;;13.03;56.88;99716.70;1746729;81;21496;-37
2022/04/27 08:36:00;;;;;;;20.35;14.13;;;;;;;12.97;56.54;99717.06;1746407;82;21060;-38
2022/04/27 08:38:27;;;;;;;26.25;15.00;;;;;;;13.00;57.87;99712.91;1746448;82;21046;-36
2022/04/27 08:40:54;;;;;;;15.33;13.23;;;;;;;12.96;56.33;99708.75;1746717;82;20990;-39
2022/04/27 08:43:22;;;;;;;18.52;12.90;;;;;;;12.96;56.33;99708.75;1746489;82;21468;-37
2022/04/27 08:45:48;;;;;;;;;;;;;;;13.09;55.47;99715.96;1749104;82;20984;-36
2022/04/27 08:48:18;;;;;;;25.62;14.40;;;;;;;13.24;53.48;99712.39;1746383;82;20147;-38
2022/04/27 08:50:45;;;;;;;18.37;13.72;;;;;;;13.34;55.02;99714.91;1746411;82;21051;-36
2022/04/27 08:53:12;;;;;;;23.00;14.18;;;;;;;13.38;54.43;99715.09;1746517;82;21000;-36
2022/04/27 08:55:40;;;;;;;17.70;13.57;;;;;;;13.37;53.88;99714.73;1746739;82;21457;-38
2022/04/27 08:58:11;;;;;;;16.70;11.73;;;;;;;13.39;53.66;99718.13;1746432;82;20994;-38
2022/04/27 09:00:39;;;;;;;16.42;11.88;;;;;;;13.48;53.38;99721.14;1746384;82;21484;-38
2022/04/27 09:03:34;;;;;;;24.65;11.60;;;;;;;13.60;54.18;99721.25;1746558;81;21003;-37
2022/04/27 09:06:07;;;;;;;18.62;11.03;;;;;;;13.69;52.80;99717.67;1746350;82;21003;-38
2022/04/27 09:08:45;;;;;;;13.28;10.70;;;;;;;13.75;52.84;99713.33;1739178;81;20952;-39
2022/04/27 09:11:14;;;;;;;18.40;10.82;;;;;;;13.92;52.38;99721.55;1746237;81;20980;-38
2022/04/27 09:13:44;;;;;;;19.27;9.73;;;;;;;13.98;49.58;99719.36;1748205;81;21008;-37
2022/04/27 09:16:10;;;;;;;16.37;10.32;;;;;;;14.06;49.99;99720.67;1747923;81;20984;-36
2022/04/27 09:21:58;;;;;;;13.70;10.18;;;;;;;14.15;48.85;99726.25;1755346;80;21427;-36
2022/04/27 09:24:26;;;;;;;13.55;10.25;;;;;;;14.31;49.18;99725.27;1784249;79;21498;-36
2022/04/27 09:27:03;;;;;;;12.80;9.35;;;;;;;14.52;49.29;99722.56;1784286;80;20986;-36
2022/04/27 09:29:29;;;;;;;11.73;8.60;;;;;;;14.84;48.21;99727.56;1774252;80;21030;-36
2022/04/27 09:31:57;;;;;;;12.82;9.10;;;;;;;15.14;45.94;99723.84;1784234;80;21483;-37
2022/04/27 09:34:31;;;;;;;11.48;9.38;;;;;;;15.28;47.85;99722.44;1784334;80;20974;-36
2022/04/27 09:37:19;;;;;;;15.63;10.68;;;;;;;15.33;47.66;99722.11;1784253;80;20985;-37
2022/04/27 09:39:48;;;;;;;13.38;9.40;;;;;;;15.23;47.27;99726.35;1784310;80;21014;-37
2022/04/27 09:42:14;;;;;;;12.58;9.25;;;;;;;15.28;46.58;99723.77;1780862;80;21068;-39
2022/04/27 09:44:42;;;;;;;10.95;8.28;;;;;;;15.48;45.11;99726.83;1788804;79;21069;-36
2022/04/27 09:47:09;;;;;;;17.05;8.50;;;;;;;15.68;44.42;99723.67;1793319;80;21417;-37
2022/04/27 09:49:36;;;;;;;12.10;7.95;;;;;;;15.83;46.10;99730.22;1793327;80;21448;-37
2022/04/27 09:52:06;;;;;;;12.20;7.62;;;;;;;15.71;43.91;99733.20;1793093;80;20950;-38
2022/04/27 09:54:36;;;;;;;16.17;7.80;;;;;;;15.55;44.41;99730.30;1792012;80;21029;-36
2022/04/27 09:57:13;;;;;;;13.40;7.10;;;;;;;15.35;45.32;99734.77;1793113;80;21006;-37
2022/04/27 09:59:36;;;;;;;9.53;6.90;;;;;;;15.28;45.04;99722.44;1790622;79;21037;-37
2022/04/27 10:02:08;;;;;;;14.07;7.12;;;;;;;15.29;45.48;99730.73;1792503;79;21040;-36
2022/04/27 10:04:36;;;;;;;10.30;6.35;;;;;;;15.30;44.22;99727.15;1793001;80;21510;-37
2022/04/27 10:07:05;;;;;;;8.60;6.47;;;;;;;15.38;44.81;99727.10;1793067;79;20998;-36
2022/04/27 10:09:32;;;;;;;8.70;5.62;;;;;;;15.68;44.56;99728.97;1793020;80;21005;-36
2022/04/27 10:12:11;;;;;;;8.58;6.10;;;;;;;16.56;44.54;99730.72;1792933;80;21537;-37
2022/04/27 10:14:30;;;;;;;8.15;5.25;;;;;;;17.12;39.54;99725.30;1791127;80;21033;-37
2022/04/27 10:16:57;;;;;;;14.10;5.12;;;;;;;17.72;35.99;99724.69;1793360;80;21028;-39
2022/04/27 10:19:24;;;;;;;8.60;4.53;;;;;;;18.82;41.20;99724.84;1793287;79;20985;-38
2022/04/27 10:22:05;;;;;;;7.00;3.77;;;;;;;19.05;35.09;99733.59;1793134;80;21486;-40
2022/04/27 10:24:49;;;;;;;4.92;4.17;;;;;;;19.31;33.66;99727.39;1792818;79;21606;-39
2022/04/27 10:27:35;;;;;;;5.33;4.15;;;;;;;20.38;36.83;99728.39;1793068;80;20970;-39
2022/04/27 10:30:10;;;;;;;4.50;3.47;;;;;;;21.15;30.49;99725.45;1784579;80;21476;-41
2022/04/27 10:32:49;;;;;;;6.20;3.42;;;;;;;21.33;28.69;99727.73;1761253;81;21487;-41
2022/04/27 10:35:33;;;;;;;9.28;3.52;;;;;;;22.00;26.31;99726.38;1760441;81;21015;-37
2022/04/27 10:38:07;;;;;;;20.05;4.25;;;;;;;22.59;24.51;99725.09;1760908;81;20991;-38
2022/04/27 10:40:42;;;;;;;6.35;3.65;;;;;;;23.68;29.75;99721.28;1760810;81;21549;-43
2022/04/27 10:43:13;;;;;;;3.90;3.50;;;;;;;24.53;29.32;99726.73;1761195;81;21038;-41
2022/04/27 10:45:45;;;;;;;5.78;3.27;;;;;;;24.91;24.33;99732.52;1753563;81;20984;-37
2022/04/27 10:48:23;;;;;;;6.35;4.25;;;;;;;24.66;25.76;99732.14;1753571;82;20963;-36
2022/04/27 10:50:56;;;;;;;12.25;5.90;;;;;;;24.27;27.59;99725.97;1752463;82;21034;-38
2022/04/27 10:53:26;;;;;;;15.65;6.65;;;;;;;23.21;28.17;99728.34;1752383;82;20995;-39
2022/04/27 10:55:58;;;;;;;14.85;7.12;;;;;;;22.11;29.35;99729.36;1752510;82;22225;-37
2022/04/27 10:58:35;;;;;;;11.70;6.58;;;;;;;21.17;29.85;99734.16;1753565;81;21034;-38
2022/04/27 11:01:19;;;;;;;11.48;6.10;;;;;;;20.30;31.12;99744.61;1753705;82;20987;-37
2022/04/27 11:04:01;;;;;;;8.83;6.15;;;;;;;19.35;31.55;99741.64;1752382;81;21023;-37
2022/04/27 11:06:27;;;;;;;14.30;6.80;;;;;;;18.56;32.86;99741.12;1753764;81;20975;-39
2022/04/27 11:09:15;;;;;;;11.73;7.72;;;;;;;18.16;33.45;99741.67;1753980;81;21039;-36
2022/04/27 11:11:56;;;;;;;11.25;7.80;;;;;;;17.80;34.58;99738.25;1753175;82;21539;-37
2022/04/27 11:14:29;;;;;;;8.65;6.95;;;;;;;17.36;35.28;99735.41;1753741;82;21103;-37
2022/04/27 11:16:55;;;;;;;9.10;6.22;;;;;;;17.08;35.30;99739.30;1753005;81;21011;-37
2022/04/27 11:19:37;;;;;;;53.47;7.90;;;;;;;16.91;35.55;99742.39;1753226;82;21015;-36
2022/04/27 11:22:15;;;;;;;11.28;5.90;;;;;;;16.73;35.45;99745.40;1752231;82;21063;-35
2022/04/27 11:24:45;;;;;;;8.20;5.50;;;;;;;16.48;35.94;99744.55;1753742;81;20998;-36
2022/04/27 11:27:11;;;;;;;6.58;5.00;;;;;;;16.32;36.05;99742.64;1725989;82;21742;-36
2022/04/27 11:29:38;;;;;;;6.78;4.78;;;;;;;16.16;35.99;99741.56;1753912;81;21482;-35
2022/04/27 11:32:06;;;;;;;6.37;5.25;;;;;;;16.03;36.56;99746.89;1753519;82;21131;-36
2022/04/27 11:34:33;;;;;;;7.65;5.47;;;;;;;15.90;35.99;99742.09;1753798;81;20991;-36
2022/04/27 11:37:20;;;;;;;9.60;4.87;;;;;;;15.92;36.50;99746.80;1753414;82;21530;-37
2022/04/27 11:39:47;;;;;;;13.70;4.97;;;;;;;15.91;36.85;99743.77;1752649;82;21030;-36
2022/04/27 11:42:16;;;;;;;7.90;5.03;;;;;;;15.97;36.68;99744.69;1752839;82;21030;-35
2022/04/27 11:44:52;;;;;;;5.85;4.92;;;;;;;15.94;36.79;99743.56;1752334;81;21046;-37
2022/04/27 11:47:32;;;;;;;6.83;4.47;;;;;;;15.90;36.61;99744.26;1760564;80;21033;-36